Greenburgh, New York
Current Conditions -  °F | °C
As of 4:56 AM on Sunday 21 Dec 2014 (Local Time) from KHPN Reporting Station
Overcast Overcast  
Wind Chill: 22°   Ceiling: 2800
Heat Index: 29°   Visibility: 10mi
Dew Point: 24°   Wind: 7mph
Humidity: 82%   Direction: 340°NNW
Pressure: 30.24"   Gusts: NA
Location:  41.0404°N, 73.8014°W
Report Text: KHPN 210956Z 34006KT 10SM OVC028 M02/M04 A3024 RMK AO2 SLP249 T10171044
Loading
Personal Weather Stations






























Interactive Weather Map New forecast layout! Learn more

10-Day Weather Forecast

Advertisements
Track Severe Weather on mobile